Time;durP1;ratioP1;P1;durP2;ratioP2;P2;SDS_P1;SDS_P2;PMS_P1;PMS_P2;Temp;Humidity;BMP_temperature;BMP_pressure;BME280_temperature;BME280_humidity;BME280_pressure;Samples;Min_cycle;Max_cycle;Signal;HPM_P1;HPM_P2
2021/07/23 00:02:08;;;;;;;13.03;10.20;;;17.50;91.30;;;;;;5030517;28;20626;-90
2021/07/23 00:04:36;;;;;;;12.83;10.83;;;17.40;91.40;;;;;;5028688;28;20622;-89
2021/07/23 00:07:03;;;;;;;12.57;11.10;;;17.40;91.90;;;;;;5008402;28;20616;-90
2021/07/23 00:09:32;;;;;;;10.77;9.67;;;17.40;92.30;;;;;;5015781;28;20637;-90
2021/07/23 00:11:59;;;;;;;11.03;9.50;;;17.30;92.50;;;;;;5015240;28;21158;-90
2021/07/23 00:14:26;;;;;;;11.87;10.67;;;17.30;92.50;;;;;;5022916;28;20664;-90
2021/07/23 00:16:53;;;;;;;13.43;11.50;;;17.30;92.70;;;;;;5026676;28;21040;-90
2021/07/23 00:19:20;;;;;;;12.33;10.40;;;17.30;92.60;;;;;;5029827;28;20655;-90
2021/07/23 00:21:47;;;;;;;11.10;9.30;;;17.20;92.80;;;;;;5023739;28;20652;-91
2021/07/23 00:24:14;;;;;;;13.57;9.80;;;17.10;93.20;;;;;;5030884;28;21253;-91
2021/07/23 00:26:42;;;;;;;13.47;9.97;;;17.10;93.60;;;;;;5030193;28;21413;-91
2021/07/23 00:29:09;;;;;;;12.30;9.73;;;17.10;93.40;;;;;;5014035;28;20992;-90
2021/07/23 00:31:36;;;;;;;11.73;9.70;;;17.10;93.50;;;;;;5011437;28;21234;-90
2021/07/23 00:34:03;;;;;;;11.30;9.67;;;17.00;93.50;;;;;;5010778;28;21068;-91
2021/07/23 00:36:30;;;;;;;11.77;9.90;;;16.90;93.80;;;;;;5018849;28;20623;-90
2021/07/23 00:38:57;;;;;;;11.73;10.20;;;16.90;94.10;;;;;;5014502;28;20644;-90
2021/07/23 00:41:24;;;;;;;11.53;10.30;;;16.80;94.10;;;;;;5027240;28;20619;-90
2021/07/23 00:43:53;;;;;;;11.40;9.37;;;16.90;94.20;;;;;;5030265;28;20620;-91
2021/07/23 00:46:20;;;;;;;14.93;10.13;;;16.80;94.30;;;;;;5027584;28;20635;-90
2021/07/23 00:48:47;;;;;;;14.60;9.60;;;16.80;94.50;;;;;;5018489;28;20639;-91
2021/07/23 00:51:14;;;;;;;10.93;9.50;;;16.80;94.70;;;;;;5011383;28;20615;-90
2021/07/23 00:53:42;;;;;;;11.60;9.87;;;16.70;94.90;;;;;;5031666;28;21186;-89
2021/07/23 00:56:09;;;;;;;13.23;11.53;;;16.70;95.30;;;;;;5030558;28;20649;-90
2021/07/23 00:58:36;;;;;;;12.00;10.40;;;16.70;94.90;;;;;;5016757;28;20615;-90
2021/07/23 01:01:04;;;;;;;10.33;9.27;;;16.70;95.30;;;;;;5024305;28;20663;-90
2021/07/23 01:03:34;;;;;;;12.57;9.83;;;16.70;95.70;;;;;;5014472;28;20623;-90
2021/07/23 01:06:03;;;;;;;10.90;8.87;;;16.70;95.70;;;;;;5015532;28;20664;-90
2021/07/23 01:08:32;;;;;;;11.97;10.23;;;16.70;95.60;;;;;;5014413;28;20619;-91
2021/07/23 01:11:00;;;;;;;12.03;10.10;;;16.70;95.80;;;;;;5025890;28;20627;-90
2021/07/23 01:13:29;;;;;;;14.53;10.30;;;16.60;95.80;;;;;;5020635;28;20689;-90
2021/07/23 01:15:57;;;;;;;10.70;9.07;;;16.60;95.60;;;;;;5013878;28;21212;-90
2021/07/23 01:18:27;;;;;;;9.80;8.73;;;16.60;96.20;;;;;;5020439;28;20670;-90
2021/07/23 01:20:56;;;;;;;14.60;10.80;;;16.50;96.10;;;;;;5027370;28;21224;-90
2021/07/23 01:23:31;;;;;;;12.90;10.83;;;16.50;96.30;;;;;;5029475;28;20670;-91
2021/07/23 01:26:01;;;;;;;10.77;9.67;;;16.50;96.30;;;;;;5023805;28;20925;-91
2021/07/23 01:28:32;;;;;;;12.07;9.93;;;16.50;96.60;;;;;;5034071;28;21121;-90
2021/07/23 01:31:01;;;;;;;13.17;9.47;;;16.50;97.00;;;;;;5025256;28;21329;-89
2021/07/23 01:33:30;;;;;;;12.53;10.40;;;16.50;96.70;;;;;;5024386;28;20611;-91
2021/07/23 01:35:59;;;;;;;12.23;9.40;;;16.60;97.10;;;;;;5031930;28;21043;-91
2021/07/23 01:38:28;;;;;;;10.53;8.67;;;16.70;97.40;;;;;;5013729;28;20663;-90
2021/07/23 01:40:58;;;;;;;12.73;9.30;;;16.60;97.00;;;;;;5031226;28;20643;-91
2021/07/23 01:43:26;;;;;;;15.60;10.20;;;16.60;97.20;;;;;;5033300;28;21001;-90
2021/07/23 01:45:56;;;;;;;14.37;10.40;;;16.50;97.40;;;;;;5032248;28;20639;-90
2021/07/23 01:48:26;;;;;;;11.67;10.40;;;16.50;97.50;;;;;;5010356;28;20710;-90
2021/07/23 01:50:57;;;;;;;12.13;10.57;;;16.50;97.50;;;;;;5013169;28;20624;-88
2021/07/23 01:53:25;;;;;;;10.73;9.60;;;16.60;97.70;;;;;;5030446;28;20635;-90
2021/07/23 01:55:53;;;;;;;11.53;10.00;;;16.50;97.70;;;;;;5020886;28;20635;-90
2021/07/23 01:58:22;;;;;;;10.67;9.30;;;16.40;97.40;;;;;;5025953;28;20725;-90
2021/07/23 02:00:51;;;;;;;11.13;9.93;;;16.40;97.60;;;;;;5030595;28;20659;-90
2021/07/23 02:03:18;;;;;;;11.90;9.47;;;16.30;97.90;;;;;;5026533;28;20701;-90
2021/07/23 02:05:47;;;;;;;12.30;10.10;;;16.30;98.10;;;;;;5028700;28;20636;-90
2021/07/23 02:08:16;;;;;;;14.67;9.63;;;16.20;98.20;;;;;;5013234;28;20631;-90
2021/07/23 02:10:44;;;;;;;10.93;9.47;;;16.20;98.60;;;;;;5017427;28;20641;-89
2021/07/23 02:13:12;;;;;;;12.47;10.03;;;16.20;98.60;;;;;;5029485;28;20638;-90
2021/07/23 02:15:43;;;;;;;11.60;9.10;;;16.20;98.90;;;;;;5022059;28;20662;-89
2021/07/23 02:18:12;;;;;;;11.77;9.23;;;16.10;98.80;;;;;;5012143;28;21069;-90
2021/07/23 02:20:40;;;;;;;11.13;10.03;;;16.10;98.90;;;;;;5012766;28;20648;-89
2021/07/23 02:23:08;;;;;;;16.13;10.23;;;16.10;98.80;;;;;;5014488;28;20707;-89
2021/07/23 02:25:36;;;;;;;11.50;9.77;;;16.10;99.20;;;;;;5028955;28;20730;-89
2021/07/23 02:28:04;;;;;;;11.70;9.97;;;16.10;99.40;;;;;;5025413;28;21124;-89
2021/07/23 02:30:32;;;;;;;10.27;9.10;;;16.10;99.30;;;;;;5007370;28;20691;-89
2021/07/23 02:33:03;;;;;;;10.60;8.47;;;16.00;99.40;;;;;;5029630;28;20634;-88
2021/07/23 02:35:33;;;;;;;11.43;10.17;;;16.00;99.60;;;;;;5032620;28;20619;-89
2021/07/23 02:38:03;;;;;;;11.33;9.97;;;16.00;99.80;;;;;;5031006;28;20623;-88
2021/07/23 02:40:32;;;;;;;11.87;9.97;;;16.00;99.90;;;;;;5043571;28;20649;-89
2021/07/23 02:43:00;;;;;;;14.30;10.40;;;15.90;99.90;;;;;;5037071;28;20721;-89
2021/07/23 02:45:27;;;;;;;11.30;9.77;;;15.90;99.90;;;;;;5031557;28;20618;-89
2021/07/23 02:47:54;;;;;;;10.07;9.10;;;16.00;99.90;;;;;;5020841;28;21022;-90
2021/07/23 02:50:22;;;;;;;10.57;9.37;;;16.00;99.90;;;;;;5012622;28;20620;-89
2021/07/23 02:52:50;;;;;;;12.63;10.10;;;15.90;99.90;;;;;;5031382;28;20623;-89
2021/07/23 02:55:17;;;;;;;12.03;10.70;;;15.80;99.90;;;;;;5031815;28;21016;-90
2021/07/23 02:57:44;;;;;;;13.07;10.00;;;15.80;99.90;;;;;;5031391;28;20627;-89
2021/07/23 03:00:12;;;;;;;12.50;10.30;;;15.90;99.90;;;;;;5028869;28;20794;-89
2021/07/23 03:02:38;;;;;;;13.40;10.77;;;15.80;99.90;;;;;;5028197;28;21021;-90
2021/07/23 03:05:06;;;;;;;12.77;11.17;;;15.70;99.90;;;;;;5027564;28;20627;-88
2021/07/23 03:07:35;;;;;;;11.50;9.60;;;15.70;99.90;;;;;;5011751;28;20712;-89
2021/07/23 03:10:02;;;;;;;11.13;10.03;;;15.80;99.90;;;;;;5014444;28;20641;-89
2021/07/23 03:12:29;;;;;;;11.30;9.80;;;15.90;99.90;;;;;;5030960;28;20631;-90
2021/07/23 03:14:56;;;;;;;11.40;9.10;;;15.80;99.90;;;;;;5025965;28;20646;-90
2021/07/23 03:17:23;;;;;;;13.00;10.13;;;15.70;99.90;;;;;;5028897;28;20622;-90
2021/07/23 03:19:49;;;;;;;10.00;9.00;;;15.80;99.90;;;;;;5031091;28;21322;-89
2021/07/23 03:22:16;;;;;;;10.30;9.20;;;15.80;99.90;;;;;;5030808;28;20717;-90
2021/07/23 03:24:45;;;;;;;13.57;10.33;;;15.90;99.90;;;;;;5023910;28;20628;-89
2021/07/23 03:27:12;;;;;;;11.60;9.90;;;15.70;99.90;;;;;;5011678;28;20621;-90
2021/07/23 03:29:39;;;;;;;13.03;10.67;;;15.60;99.80;;;;;;5018770;28;20627;-89
2021/07/23 03:32:06;;;;;;;13.20;10.90;;;15.80;99.90;;;;;;5029749;28;20643;-88
2021/07/23 03:34:33;;;;;;;11.83;9.07;;;15.70;99.50;;;;;;5030869;28;20623;-89
2021/07/23 03:37:00;;;;;;;11.40;10.13;;;15.60;99.90;;;;;;5014637;28;21493;-89
2021/07/23 03:39:27;;;;;;;16.40;11.13;;;15.50;99.90;;;;;;5011093;28;20622;-88
2021/07/23 03:41:56;;;;;;;13.60;11.00;;;15.50;99.90;;;;;;5025903;28;20650;-88
2021/07/23 03:44:23;;;;;;;11.57;9.90;;;15.50;99.90;;;;;;5031077;28;20702;-89
2021/07/23 03:46:50;;;;;;;11.30;9.90;;;15.50;99.90;;;;;;5024607;28;20663;-89
2021/07/23 03:49:17;;;;;;;10.47;9.13;;;15.50;99.90;;;;;;5030435;28;20614;-89
2021/07/23 03:51:44;;;;;;;13.17;10.40;;;15.40;99.90;;;;;;5017018;28;20623;-89
2021/07/23 03:54:11;;;;;;;13.70;10.07;;;15.40;99.90;;;;;;5011252;28;20616;-89
2021/07/23 03:56:38;;;;;;;12.10;10.90;;;15.40;99.90;;;;;;5022637;28;20623;-89
2021/07/23 03:59:06;;;;;;;11.33;10.10;;;15.40;99.90;;;;;;5020015;28;20693;-89
2021/07/23 04:01:33;;;;;;;10.77;9.43;;;15.40;99.90;;;;;;5010804;28;20644;-90
2021/07/23 04:04:00;;;;;;;11.60;10.37;;;15.40;99.90;;;;;;5007414;28;20644;-88
2021/07/23 04:06:28;;;;;;;13.00;10.97;;;15.40;99.90;;;;;;5010860;28;20620;-89
2021/07/23 04:08:55;;;;;;;12.03;10.33;;;15.40;99.90;;;;;;5021696;28;20623;-89
2021/07/23 04:11:27;;;;;;;11.23;9.83;;;15.40;99.90;;;;;;5022761;28;20615;-89
2021/07/23 04:13:54;;;;;;;11.40;9.90;;;15.40;99.90;;;;;;5030979;28;20957;-89
2021/07/23 04:16:31;;;;;;;11.17;9.00;;;15.40;99.90;;;;;;5030475;28;20631;-89
2021/07/23 04:19:00;;;;;;;12.20;11.00;;;15.40;99.90;;;;;;5016438;28;20648;-89
2021/07/23 04:21:31;;;;;;;12.03;10.80;;;15.40;99.90;;;;;;5010828;28;20643;-89
2021/07/23 04:23:59;;;;;;;13.20;9.77;;;15.30;99.90;;;;;;5019550;28;20607;-89
2021/07/23 04:26:29;;;;;;;12.83;11.07;;;15.40;99.90;;;;;;5031825;28;20627;-89
2021/07/23 04:28:59;;;;;;;16.60;11.90;;;15.40;99.90;;;;;;5032668;28;21174;-89
2021/07/23 04:31:30;;;;;;;12.60;10.00;;;15.50;99.90;;;;;;5033464;28;20668;-88
2021/07/23 04:33:58;;;;;;;13.17;11.33;;;15.60;99.90;;;;;;5033983;28;20626;-88
2021/07/23 04:36:25;;;;;;;12.57;10.13;;;15.60;99.90;;;;;;5024792;28;20663;-88
2021/07/23 04:38:52;;;;;;;18.37;13.77;;;15.60;99.90;;;;;;5015229;28;20662;-88
2021/07/23 04:41:18;;;;;;;15.70;11.63;;;15.50;99.90;;;;;;5051963;28;21037;-88
2021/07/23 04:43:46;;;;;;;12.63;11.33;;;15.50;99.90;;;;;;5041957;28;20619;-89
2021/07/23 04:46:15;;;;;;;15.03;12.37;;;15.50;99.90;;;;;;5015473;28;21038;-88
2021/07/23 04:48:45;;;;;;;16.07;12.87;;;15.50;99.90;;;;;;5014736;28;20602;-88
2021/07/23 04:51:12;;;;;;;14.17;11.53;;;15.50;99.90;;;;;;5023461;28;20615;-88
2021/07/23 04:53:44;;;;;;;15.97;11.20;;;15.50;99.90;;;;;;5033754;28;20777;-88
2021/07/23 04:56:12;;;;;;;13.87;12.13;;;15.50;99.90;;;;;;5024432;28;20635;-88
2021/07/23 04:58:42;;;;;;;15.07;13.20;;;15.70;99.90;;;;;;5030249;28;20619;-89
2021/07/23 05:01:20;;;;;;;11.97;10.80;;;15.80;99.90;;;;;;5013867;28;20652;-88
2021/07/23 05:03:49;;;;;;;13.37;11.97;;;15.90;99.90;;;;;;5015665;28;20623;-89
2021/07/23 05:06:21;;;;;;;13.37;11.90;;;15.90;99.90;;;;;;5034176;28;20661;-89
2021/07/23 05:08:48;;;;;;;14.23;12.63;;;16.10;99.90;;;;;;5032819;28;20611;-88
2021/07/23 05:11:16;;;;;;;17.47;12.80;;;16.20;99.90;;;;;;5030738;28;20607;-88
2021/07/23 05:13:43;;;;;;;16.13;13.13;;;16.20;99.90;;;;;;5032999;28;20615;-89
2021/07/23 05:16:11;;;;;;;13.27;11.70;;;16.40;99.90;;;;;;5014206;28;20644;-88
2021/07/23 05:18:40;;;;;;;17.37;12.30;;;16.50;99.90;;;;;;5019758;28;20623;-88
2021/07/23 05:21:11;;;;;;;14.60;12.83;;;16.60;99.90;;;;;;5026384;28;21291;-88
2021/07/23 05:23:40;;;;;;;15.43;11.67;;;16.60;99.90;;;;;;5026325;28;20627;-88
2021/07/23 05:26:07;;;;;;;15.93;12.07;;;16.60;99.90;;;;;;5028317;28;20632;-88
2021/07/23 05:28:34;;;;;;;15.10;11.60;;;16.70;99.90;;;;;;5024570;28;21224;-88
2021/07/23 05:31:02;;;;;;;14.53;10.87;;;16.70;99.90;;;;;;5029906;28;20640;-88
2021/07/23 05:33:29;;;;;;;12.33;11.03;;;16.70;99.90;;;;;;5033541;28;20610;-88
2021/07/23 05:35:55;;;;;;;14.33;11.83;;;16.80;99.90;;;;;;5032344;28;21028;-88
2021/07/23 05:38:24;;;;;;;14.73;11.00;;;16.90;99.90;;;;;;5029408;28;21004;-89
2021/07/23 05:40:51;;;;;;;13.97;11.10;;;17.00;99.90;;;;;;5052319;28;20695;-88
2021/07/23 05:43:17;;;;;;;15.30;12.30;;;17.10;99.90;;;;;;5053533;28;20613;-87
2021/07/23 05:45:44;;;;;;;13.70;11.33;;;17.20;99.90;;;;;;5033479;28;20619;-89
2021/07/23 05:48:11;;;;;;;17.43;10.90;;;17.30;99.90;;;;;;5030660;28;20623;-88
2021/07/23 05:50:38;;;;;;;13.30;11.37;;;17.30;99.90;;;;;;5030152;28;20632;-86
2021/07/23 05:53:05;;;;;;;15.10;11.47;;;17.40;99.90;;;;;;5036541;28;20630;-87
2021/07/23 05:55:33;;;;;;;11.83;9.90;;;17.40;99.90;;;;;;5050813;28;21010;-86
2021/07/23 05:58:00;;;;;;;12.87;10.67;;;17.50;99.90;;;;;;5027844;28;20631;-88
2021/07/23 06:00:28;;;;;;;12.67;10.17;;;17.50;98.90;;;;;;5032134;28;20619;-87
2021/07/23 06:02:55;;;;;;;12.20;10.97;;;17.60;98.80;;;;;;5031773;28;20608;-88
2021/07/23 06:05:22;;;;;;;12.33;11.03;;;17.60;99.00;;;;;;5032435;28;20652;-88
2021/07/23 06:07:49;;;;;;;14.30;10.70;;;17.70;98.80;;;;;;5032057;28;21003;-88
2021/07/23 06:10:16;;;;;;;14.90;10.10;;;17.70;98.80;;;;;;5032900;28;20678;-87
2021/07/23 06:12:44;;;;;;;12.03;10.30;;;17.70;99.00;;;;;;5019953;28;20628;-86
2021/07/23 06:15:11;;;;;;;13.83;10.77;;;17.80;98.60;;;;;;5029903;28;21072;-88
2021/07/23 06:17:38;;;;;;;18.00;11.30;;;17.80;98.10;;;;;;5024268;28;20974;-87
2021/07/23 06:20:06;;;;;;;13.10;11.77;;;17.90;98.30;;;;;;5033401;28;20630;-88
2021/07/23 06:22:33;;;;;;;11.57;9.57;;;17.90;98.00;;;;;;5021105;28;20655;-87
2021/07/23 06:25:00;;;;;;;11.47;10.27;;;18.00;98.10;;;;;;5015290;28;20618;-87
2021/07/23 06:27:27;;;;;;;12.63;11.40;;;18.00;98.00;;;;;;5030383;28;20640;-87
2021/07/23 06:29:56;;;;;;;16.23;12.30;;;18.10;97.70;;;;;;5036832;28;20617;-87
2021/07/23 06:32:26;;;;;;;13.40;11.87;;;18.10;97.70;;;;;;5035460;28;20639;-87
2021/07/23 06:34:53;;;;;;;13.83;10.80;;;18.30;97.70;;;;;;5034906;28;20732;-86
2021/07/23 06:37:21;;;;;;;13.00;10.80;;;18.40;97.90;;;;;;5029399;28;20687;-87
2021/07/23 06:39:48;;;;;;;12.60;11.30;;;18.50;98.00;;;;;;5050697;28;20621;-87
2021/07/23 06:42:16;;;;;;;13.67;11.47;;;18.60;97.80;;;;;;5029839;28;20651;-86
2021/07/23 06:44:42;;;;;;;14.33;12.80;;;18.60;97.10;;;;;;5018029;28;20695;-87
2021/07/23 06:47:11;;;;;;;14.50;12.80;;;18.60;97.40;;;;;;5016887;28;20626;-87
2021/07/23 06:49:38;;;;;;;17.37;12.63;;;18.70;97.50;;;;;;5017879;28;20696;-85
2021/07/23 06:52:06;;;;;;;15.53;13.67;;;18.80;97.60;;;;;;5031970;28;20630;-85
2021/07/23 06:54:34;;;;;;;13.90;12.17;;;18.90;97.20;;;;;;5031877;28;20741;-85
2021/07/23 06:57:04;;;;;;;14.50;12.90;;;18.80;97.40;;;;;;5030265;28;20740;-86
2021/07/23 06:59:31;;;;;;;12.73;11.43;;;18.90;97.60;;;;;;5030632;28;20610;-86
2021/07/23 07:01:59;;;;;;;14.57;11.30;;;19.20;97.20;;;;;;5030631;28;20706;-86
2021/07/23 07:04:28;;;;;;;16.50;13.53;;;19.40;97.10;;;;;;5031088;28;20654;-86
2021/07/23 07:06:55;;;;;;;14.53;12.00;;;19.60;95.90;;;;;;5031288;28;20963;-86
2021/07/23 07:09:23;;;;;;;14.50;11.67;;;19.70;95.80;;;;;;5031139;28;20666;-87
2021/07/23 07:11:51;;;;;;;15.53;12.90;;;19.90;95.60;;;;;;5030735;28;21264;-86
2021/07/23 07:14:18;;;;;;;13.30;11.93;;;20.10;95.20;;;;;;5030476;28;20717;-87
2021/07/23 07:16:45;;;;;;;13.83;12.23;;;20.10;95.80;;;;;;5038129;28;20614;-85
2021/07/23 07:19:12;;;;;;;14.10;12.60;;;20.20;95.40;;;;;;5026181;28;20657;-86
2021/07/23 07:21:47;;;;;;;15.87;13.07;;;20.40;94.10;;;;;;5029789;28;20651;-86
2021/07/23 07:24:14;;;;;;;13.10;11.77;;;20.30;94.70;;;;;;5030541;28;20646;-85
2021/07/23 07:26:42;;;;;;;14.60;13.10;;;20.20;94.70;;;;;;5030369;28;21255;-85
2021/07/23 07:29:09;;;;;;;13.93;12.53;;;20.30;94.70;;;;;;5030445;28;20680;-85
2021/07/23 07:31:37;;;;;;;16.60;12.20;;;20.40;94.20;;;;;;5027032;28;20627;-85
2021/07/23 07:34:05;;;;;;;12.73;11.57;;;20.60;94.20;;;;;;5030659;28;20685;-85
2021/07/23 07:36:32;;;;;;;15.50;13.60;;;20.80;93.90;;;;;;5028645;28;20627;-85
2021/07/23 07:39:00;;;;;;;14.30;12.57;;;20.60;93.40;;;;;;5030631;28;20643;-86
2021/07/23 07:41:28;;;;;;;16.33;13.30;;;20.60;93.60;;;;;;5042604;28;20662;-85
2021/07/23 07:43:55;;;;;;;14.23;11.63;;;20.50;93.50;;;;;;5030600;28;20651;-86
2021/07/23 07:46:22;;;;;;;12.80;11.50;;;20.70;94.20;;;;;;5030308;28;20663;-87
2021/07/23 07:48:50;;;;;;;15.13;11.33;;;20.90;93.50;;;;;;5031028;28;20627;-87
2021/07/23 07:51:20;;;;;;;12.90;11.57;;;21.10;92.60;;;;;;5015131;28;20634;-86
2021/07/23 07:53:47;;;;;;;12.73;11.57;;;21.00;93.30;;;;;;5022652;28;20630;-87
2021/07/23 07:56:16;;;;;;;12.87;11.57;;;21.20;93.60;;;;;;5025888;28;20623;-84
2021/07/23 07:58:43;;;;;;;12.87;11.57;;;21.20;93.00;;;;;;5027952;28;20623;-85
2021/07/23 08:01:14;;;;;;;14.40;12.80;;;21.10;93.50;;;;;;5026983;28;20636;-86
2021/07/23 08:03:41;;;;;;;17.73;13.40;;;21.10;93.10;;;;;;5030248;28;20612;-85
2021/07/23 08:06:18;;;;;;;15.30;13.30;;;21.40;93.00;;;;;;5039284;28;20632;-88
2021/07/23 08:08:45;;;;;;;12.50;11.20;;;21.40;93.60;;;;;;5027637;28;20636;-87
2021/07/23 08:11:12;;;;;;;18.63;12.57;;;21.80;92.30;;;;;;5011331;28;20636;-86
2021/07/23 08:13:40;;;;;;;15.97;14.10;;;21.70;92.70;;;;;;5012553;28;20617;-87
2021/07/23 08:16:07;;;;;;;14.43;12.70;;;21.80;92.30;;;;;;5015212;28;20621;-87
2021/07/23 08:18:35;;;;;;;16.90;13.27;;;22.10;91.90;;;;;;5026453;28;20639;-87
2021/07/23 08:21:03;;;;;;;14.63;13.00;;;22.30;92.40;;;;;;5039548;28;20640;-86
2021/07/23 08:23:32;;;;;;;14.90;12.80;;;22.20;92.40;;;;;;5023092;28;20745;-86
2021/07/23 08:26:01;;;;;;;16.07;12.40;;;22.10;92.80;;;;;;5011243;28;20645;-86
2021/07/23 08:28:28;;;;;;;15.07;12.70;;;22.00;92.60;;;;;;5011508;28;21062;-86
2021/07/23 08:30:57;;;;;;;15.73;12.70;;;22.00;92.80;;;;;;5016378;28;20640;-86
2021/07/23 08:33:24;;;;;;;14.93;13.37;;;22.00;92.70;;;;;;5029642;28;21218;-86
2021/07/23 08:35:52;;;;;;;13.93;12.50;;;22.10;92.90;;;;;;5029308;28;20624;-86
2021/07/23 08:38:19;;;;;;;16.83;13.40;;;22.10;92.60;;;;;;5031716;28;20973;-86
2021/07/23 08:40:46;;;;;;;14.87;12.40;;;22.00;92.50;;;;;;5040856;28;20634;-85
2021/07/23 08:43:14;;;;;;;15.00;13.50;;;22.10;92.10;;;;;;5030470;28;20651;-86
2021/07/23 08:45:42;;;;;;;15.90;13.67;;;22.20;91.60;;;;;;5031710;28;20617;-86
2021/07/23 08:48:11;;;;;;;17.70;13.43;;;22.30;92.20;;;;;;5030588;28;20626;-86
2021/07/23 08:50:38;;;;;;;18.40;14.10;;;22.50;91.70;;;;;;5030821;28;21441;-85
2021/07/23 08:53:10;;;;;;;17.60;14.30;;;22.60;91.50;;;;;;5028810;28;20622;-86
2021/07/23 08:55:37;;;;;;;18.97;13.30;;;22.60;91.20;;;;;;5028608;28;20651;-88
2021/07/23 08:58:07;;;;;;;19.27;15.10;;;22.70;91.60;;;;;;5029463;28;21180;-86
2021/07/23 09:00:35;;;;;;;15.40;13.77;;;23.00;91.40;;;;;;5017160;28;20716;-87
2021/07/23 09:03:03;;;;;;;16.30;14.20;;;23.00;90.60;;;;;;5035597;28;20651;-86
2021/07/23 09:05:33;;;;;;;17.30;15.50;;;23.00;90.50;;;;;;5050612;28;20607;-87
2021/07/23 09:08:01;;;;;;;15.70;12.93;;;22.90;89.80;;;;;;5035823;28;20668;-86
2021/07/23 09:10:30;;;;;;;13.67;12.17;;;23.10;91.00;;;;;;5034224;28;20637;-87
2021/07/23 09:13:01;;;;;;;13.80;12.50;;;23.40;91.20;;;;;;5030746;28;20968;-87
2021/07/23 09:15:30;;;;;;;13.07;11.87;;;23.50;90.90;;;;;;5034224;28;20623;-87
2021/07/23 09:17:58;;;;;;;12.03;10.70;;;23.80;88.60;;;;;;5035495;28;20635;-88
2021/07/23 09:20:29;;;;;;;11.03;9.73;;;24.10;85.20;;;;;;5032651;28;20634;-87
2021/07/23 09:23:00;;;;;;;14.00;11.03;;;24.30;82.60;;;;;;5032402;28;20654;-86
2021/07/23 09:25:47;;;;;;;13.37;11.03;;;24.50;80.90;;;;;;5025793;28;20710;-87
2021/07/23 09:28:27;;;;;;;12.43;10.87;;;24.60;81.60;;;;;;5010720;28;21348;-86
2021/07/23 09:30:54;;;;;;;13.40;11.40;;;24.80;82.80;;;;;;5015859;28;20647;-87
2021/07/23 09:33:26;;;;;;;15.37;12.77;;;24.70;80.00;;;;;;5029038;28;20623;-86
2021/07/23 09:35:54;;;;;;;12.70;11.50;;;24.80;80.70;;;;;;5032941;28;20611;-86
2021/07/23 09:38:24;;;;;;;14.10;12.60;;;24.90;82.30;;;;;;5033987;28;21172;-87
2021/07/23 09:40:52;;;;;;;13.33;11.37;;;25.00;80.40;;;;;;5033281;28;20603;-86
2021/07/23 09:43:30;;;;;;;12.53;11.27;;;25.20;80.00;;;;;;5030518;28;20674;-86
2021/07/23 09:46:33;;;;;;;13.07;11.87;;;25.30;80.20;;;;;;5031215;28;20657;-87
2021/07/23 09:49:02;;;;;;;15.43;12.57;;;25.50;76.90;;;;;;5027320;28;20658;-86
2021/07/23 09:51:30;;;;;;;14.07;11.93;;;25.20;78.10;;;;;;5030275;28;20625;-86
2021/07/23 09:53:58;;;;;;;11.67;10.53;;;25.00;79.40;;;;;;5029657;28;20619;-86
2021/07/23 09:56:27;;;;;;;13.33;11.63;;;25.10;80.20;;;;;;5030432;28;21015;-86
2021/07/23 09:58:58;;;;;;;14.50;13.00;;;25.30;78.20;;;;;;5021296;28;20628;-88
2021/07/23 10:01:31;;;;;;;12.57;11.37;;;25.50;79.00;;;;;;5019747;28;20700;-87
2021/07/23 10:04:06;;;;;;;13.20;12.00;;;25.70;78.30;;;;;;5010994;28;20643;-87
2021/07/23 10:06:36;;;;;;;16.33;12.23;;;25.80;79.10;;;;;;5014917;28;20623;-85
2021/07/23 10:09:09;;;;;;;11.93;10.73;;;25.90;72.50;;;;;;5014485;28;20600;-86
2021/07/23 10:11:39;;;;;;;12.20;10.93;;;26.10;74.50;;;;;;5028280;28;21041;-86
2021/07/23 10:14:09;;;;;;;11.67;10.43;;;26.20;73.50;;;;;;5031482;28;20611;-87
2021/07/23 10:16:39;;;;;;;12.63;11.37;;;26.30;72.10;;;;;;5033655;28;20661;-84
2021/07/23 10:19:08;;;;;;;11.87;10.53;;;26.40;71.40;;;;;;5031932;28;20651;-85
2021/07/23 10:21:35;;;;;;;14.17;12.00;;;26.40;73.70;;;;;;5030442;28;20631;-86
2021/07/23 10:24:04;;;;;;;13.13;11.83;;;26.30;73.10;;;;;;5031294;28;21192;-86
2021/07/23 10:26:32;;;;;;;12.80;11.80;;;26.50;72.50;;;;;;5031484;28;20622;-87
2021/07/23 10:28:59;;;;;;;11.40;10.30;;;26.70;70.20;;;;;;5031522;28;20643;-87
2021/07/23 10:31:43;;;;;;;12.47;11.37;;;26.80;70.00;;;;;;5031277;28;20630;-87
2021/07/23 10:34:11;;;;;;;12.13;10.43;;;26.90;69.90;;;;;;5031890;28;21000;-85
2021/07/23 10:36:42;;;;;;;12.93;11.03;;;27.10;70.90;;;;;;5036434;28;20614;-85
2021/07/23 10:39:13;;;;;;;12.77;11.33;;;27.00;69.10;;;;;;5051496;28;20975;-84
2021/07/23 10:41:43;;;;;;;12.70;11.47;;;26.90;66.40;;;;;;5030990;28;20705;-86
2021/07/23 10:44:35;;;;;;;13.03;11.40;;;26.50;69.50;;;;;;5031708;28;21174;-86
2021/07/23 10:47:03;;;;;;;11.30;10.10;;;26.60;71.90;;;;;;5031596;28;20975;-87
2021/07/23 10:49:47;;;;;;;12.00;10.87;;;27.10;67.40;;;;;;5031484;28;20627;-85
2021/07/23 10:52:28;;;;;;;13.07;11.33;;;27.20;64.60;;;;;;5031156;28;20638;-86
2021/07/23 10:55:21;;;;;;;12.07;11.07;;;27.40;64.50;;;;;;5031214;28;20645;-85
2021/07/23 10:58:38;;;;;;;14.83;10.63;;;27.60;66.90;;;;;;5026034;28;21199;-85
2021/07/23 11:01:05;;;;;;;11.03;9.93;;;27.90;66.70;;;;;;4949661;28;20635;-84
2021/07/23 11:04:02;;;;;;;11.50;10.50;;;28.10;65.70;;;;;;5001317;28;21298;-85
2021/07/23 11:06:37;;;;;;;13.13;11.33;;;28.20;61.40;;;;;;5002857;28;20640;-86
2021/07/23 11:09:07;;;;;;;12.20;10.80;;;28.20;62.70;;;;;;5011243;28;20614;-87
2021/07/23 11:11:36;;;;;;;12.47;11.20;;;28.10;63.50;;;;;;5009271;28;20670;-87
2021/07/23 11:14:15;;;;;;;15.37;9.90;;;27.90;60.70;;;;;;5024742;28;20618;-86
2021/07/23 11:16:42;;;;;;;13.00;10.60;;;27.40;63.70;;;;;;5030989;28;21183;-86
2021/07/23 11:19:16;;;;;;;12.47;11.17;;;27.10;69.30;;;;;;5031009;28;20615;-86
2021/07/23 11:21:43;;;;;;;12.47;11.17;;;26.70;67.30;;;;;;5030006;28;20653;-86
2021/07/23 11:24:10;;;;;;;12.00;10.90;;;26.70;68.60;;;;;;5028941;28;20639;-86
2021/07/23 11:26:48;;;;;;;11.33;10.30;;;26.90;68.30;;;;;;5028867;28;20697;-86
2021/07/23 11:29:16;;;;;;;12.60;11.50;;;27.30;66.40;;;;;;5028891;28;20685;-86
2021/07/23 11:31:43;;;;;;;11.60;10.60;;;27.80;66.40;;;;;;5030396;28;20623;-85
2021/07/23 11:34:36;;;;;;;12.23;11.10;;;28.20;64.30;;;;;;5030492;28;20624;-86
2021/07/23 11:37:14;;;;;;;12.33;11.27;;;28.90;60.90;;;;;;5026726;28;20963;-88
2021/07/23 11:39:50;;;;;;;12.03;10.73;;;29.40;59.80;;;;;;5038263;28;20674;-86
2021/07/23 11:42:18;;;;;;;11.27;10.00;;;29.90;58.50;;;;;;5049504;28;20625;-86
2021/07/23 11:44:54;;;;;;;12.07;11.07;;;29.90;58.60;;;;;;5049823;28;20677;-87
2021/07/23 11:47:33;;;;;;;12.03;10.83;;;29.90;57.50;;;;;;5050276;28;20661;-86
2021/07/23 11:50:02;;;;;;;9.30;8.40;;;30.00;57.60;;;;;;5050328;28;20602;-87
2021/07/23 11:52:30;;;;;;;11.13;10.10;;;30.20;56.90;;;;;;5032344;28;21235;-87
2021/07/23 11:55:00;;;;;;;11.23;10.07;;;30.90;56.40;;;;;;5030707;28;20680;-87
2021/07/23 11:57:30;;;;;;;11.03;10.03;;;31.20;55.60;;;;;;5029857;28;20661;-86
2021/07/23 11:59:57;;;;;;;10.87;9.87;;;31.40;54.40;;;;;;5029976;28;20649;-87
2021/07/23 12:02:27;;;;;;;11.00;10.00;;;32.00;55.80;;;;;;5029757;28;21003;-87
2021/07/23 12:05:08;;;;;;;10.30;9.40;;;32.60;53.60;;;;;;5030129;28;20618;-86
2021/07/23 12:07:35;;;;;;;11.40;10.33;;;34.10;48.60;;;;;;5029916;28;20622;-87
2021/07/23 12:10:05;;;;;;;10.30;9.40;;;33.90;49.10;;;;;;5029607;28;21032;-89
2021/07/23 12:12:34;;;;;;;10.90;9.63;;;34.20;49.50;;;;;;5029538;28;20626;-89
2021/07/23 12:15:07;;;;;;;10.67;9.83;;;34.70;47.10;;;;;;5029753;28;20661;-89
2021/07/23 12:17:36;;;;;;;10.00;9.20;;;35.20;47.20;;;;;;5029948;28;20632;-89
2021/07/23 12:20:04;;;;;;;10.13;9.30;;;35.60;46.70;;;;;;5029411;28;20619;-88
2021/07/23 12:22:31;;;;;;;10.37;9.47;;;35.50;45.30;;;;;;5021889;28;21282;-90
2021/07/23 12:24:59;;;;;;;10.77;9.87;;;35.80;45.00;;;;;;5030093;28;20628;-91
2021/07/23 12:27:26;;;;;;;10.40;9.57;;;36.30;44.50;;;;;;5028880;28;20207;-89
2021/07/23 12:29:54;;;;;;;9.80;9.10;;;36.70;43.20;;;;;;5027524;28;20243;-89
2021/07/23 12:32:26;;;;;;;10.55;9.20;;;36.90;43.90;;;;;;5029120;28;20204;-90
2021/07/23 12:34:57;;;;;;;10.05;9.35;;;37.20;42.00;;;;;;5029912;28;20239;-90
2021/07/23 12:37:25;;;;;;;10.70;9.80;;;36.50;41.60;;;;;;5029743;28;20207;-91
2021/07/23 12:39:53;;;;;;;10.07;9.37;;;35.00;42.80;;;;;;5036460;28;20218;-90
2021/07/23 12:42:21;;;;;;;11.27;10.13;;;33.40;44.90;;;;;;5049010;28;20629;-91